createdAt,value
2023-01-21T00:00:18.611Z,40.83
2023-01-21T00:02:50.608Z,40.86
2023-01-21T00:05:22.553Z,40.91
2023-01-21T00:07:54.469Z,40.87
2023-01-21T00:10:26.379Z,40.84
2023-01-21T00:12:58.383Z,40.83
2023-01-21T00:15:30.356Z,40.88
2023-01-21T00:18:02.318Z,40.85
2023-01-21T00:20:34.462Z,40.95
2023-01-21T00:23:06.440Z,40.94
2023-01-21T00:25:38.316Z,40.85
2023-01-21T00:28:10.309Z,40.82
2023-01-21T00:30:42.285Z,40.88
2023-01-21T00:33:14.224Z,40.81
2023-01-21T00:35:46.548Z,40.90
2023-01-21T00:38:18.410Z,40.91
2023-01-21T00:40:50.313Z,40.93
2023-01-21T00:43:22.202Z,40.87
2023-01-21T00:45:54.158Z,40.90
2023-01-21T00:48:26.489Z,40.94
2023-01-21T00:51:01.771Z,40.90
2023-01-21T00:53:36.157Z,40.90
2023-01-21T00:56:11.088Z,40.90
2023-01-21T00:58:46.269Z,40.89
2023-01-21T01:01:21.205Z,40.86
2023-01-21T01:03:53.185Z,40.82
2023-01-21T01:06:25.145Z,40.89
2023-01-21T01:08:59.249Z,40.88
2023-01-21T01:11:31.834Z,40.95
2023-01-21T01:14:03.813Z,41.06
2023-01-21T01:16:35.671Z,41.06
2023-01-21T01:19:07.699Z,41.03
2023-01-21T01:21:39.637Z,41.09
2023-01-21T01:24:11.847Z,41.09
2023-01-21T01:26:43.713Z,41.09
2023-01-21T01:29:15.636Z,41.06
2023-01-21T01:31:47.598Z,41.10
2023-01-21T01:34:19.737Z,41.13
2023-01-21T01:36:51.594Z,41.21
2023-01-21T01:39:23.589Z,41.27
2023-01-21T01:41:58.406Z,41.29
2023-01-21T01:45:04.856Z,41.29
2023-01-21T01:47:40.448Z,41.39
2023-01-21T01:50:15.914Z,41.38
2023-01-21T01:52:48.060Z,41.38
2023-01-21T01:55:20.048Z,41.37
2023-01-21T01:57:54.529Z,41.40
2023-01-21T02:00:27.138Z,41.42
2023-01-21T02:03:18.007Z,41.46
2023-01-21T02:05:50.751Z,41.46
2023-01-21T02:08:24.048Z,41.43
2023-01-21T02:10:56.842Z,41.46
2023-01-21T02:13:31.864Z,41.45
2023-01-21T02:16:26.737Z,41.50
2023-01-21T02:19:32.843Z,41.65
2023-01-21T02:22:22.506Z,41.57
2023-01-21T02:24:54.432Z,41.66
2023-01-21T02:27:38.821Z,41.63
2023-01-21T02:30:32.566Z,41.67
2023-01-21T02:33:13.751Z,41.68
2023-01-21T02:36:12.387Z,41.75
2023-01-21T02:38:44.247Z,41.76
2023-01-21T02:41:32.544Z,41.77
2023-01-21T02:44:11.715Z,41.81
2023-01-21T02:46:49.037Z,41.80
2023-01-21T02:49:46.501Z,41.84
2023-01-21T02:52:23.038Z,41.89
2023-01-21T02:55:00.331Z,41.96
2023-01-21T02:57:42.069Z,41.95
2023-01-21T03:00:26.611Z,42.04
2023-01-21T03:03:24.467Z,42.05
2023-01-21T03:06:18.707Z,42.14
2023-01-21T03:08:54.281Z,42.12
2023-01-21T03:11:26.253Z,42.19
2023-01-21T03:14:29.572Z,42.22
2023-01-21T03:17:08.696Z,42.19
2023-01-21T03:19:46.206Z,42.19
2023-01-21T03:22:22.148Z,42.18
2023-01-21T03:24:55.237Z,42.19
2023-01-21T03:27:28.444Z,42.17
2023-01-21T03:30:15.051Z,42.15
2023-01-21T03:32:50.810Z,42.21
2023-01-21T03:35:51.385Z,42.21
2023-01-21T03:38:30.523Z,42.25
2023-01-21T03:41:16.763Z,42.23
2023-01-21T03:43:49.010Z,42.23
2023-01-21T03:46:44.463Z,42.24
2023-01-21T03:49:42.615Z,42.15
2023-01-21T03:52:15.493Z,42.18
2023-01-21T03:54:47.449Z,42.22
2023-01-21T03:57:19.384Z,42.27
2023-01-21T03:59:51.428Z,42.34
2023-01-21T04:02:23.395Z,42.44
2023-01-21T04:04:55.350Z,42.39
2023-01-21T04:07:27.263Z,42.41
2023-01-21T04:09:59.244Z,42.43
2023-01-21T04:12:31.211Z,42.39
2023-01-21T04:15:05.437Z,42.44
2023-01-21T04:17:37.668Z,42.39
2023-01-21T04:20:10.151Z,42.44
2023-01-21T04:22:42.036Z,42.48
2023-01-21T04:25:14.043Z,42.47
2023-01-21T04:27:45.985Z,42.53
2023-01-21T04:30:18.363Z,42.62
2023-01-21T04:32:50.596Z,42.63
2023-01-21T04:35:22.504Z,42.65
2023-01-21T04:37:54.388Z,42.57
2023-01-21T04:40:26.327Z,42.58
2023-01-21T04:42:58.299Z,42.62
2023-01-21T04:45:30.198Z,42.66
2023-01-21T04:48:02.115Z,42.75
2023-01-21T04:50:34.084Z,42.76
2023-01-21T04:53:05.943Z,42.72
2023-01-21T04:55:37.845Z,42.67
2023-01-21T04:58:09.751Z,42.64
2023-01-21T05:00:41.617Z,42.62
2023-01-21T05:03:13.498Z,42.58
2023-01-21T05:05:45.435Z,42.47
2023-01-21T05:08:17.378Z,42.35
2023-01-21T05:10:49.305Z,42.14
2023-01-21T05:13:21.172Z,41.92
2023-01-21T05:15:55.327Z,41.80
2023-01-21T05:18:27.246Z,41.59
2023-01-21T05:20:59.130Z,41.30
2023-01-21T05:23:30.986Z,41.23
2023-01-21T05:26:03.100Z,41.15
2023-01-21T05:28:35.041Z,40.87
2023-01-21T05:31:07.172Z,40.75
2023-01-21T05:33:39.307Z,40.66
2023-01-21T05:36:11.280Z,40.64
2023-01-21T05:38:43.212Z,40.47
2023-01-21T05:41:15.137Z,40.42
2023-01-21T05:43:47.154Z,40.31
2023-01-21T05:46:19.501Z,40.20
2023-01-21T05:48:51.458Z,40.15
2023-01-21T05:51:23.436Z,40.16
2023-01-21T05:53:55.849Z,40.03
2023-01-21T05:56:27.703Z,39.98
2023-01-21T05:58:59.680Z,39.82
2023-01-21T06:01:31.560Z,39.83
2023-01-21T06:04:03.564Z,39.75
2023-01-21T06:06:35.492Z,39.64
2023-01-21T06:09:07.540Z,39.63
2023-01-21T06:11:39.455Z,39.57
2023-01-21T06:14:12.665Z,39.47
2023-01-21T06:16:44.583Z,39.44
2023-01-21T06:19:16.510Z,39.38
2023-01-21T06:21:48.493Z,39.39
2023-01-21T06:24:20.380Z,39.42
2023-01-21T06:26:53.604Z,39.40
2023-01-21T06:29:25.424Z,39.51
2023-01-21T06:31:57.400Z,39.35
2023-01-21T06:34:29.467Z,39.30
2023-01-21T06:37:01.433Z,39.18
2023-01-21T06:39:33.424Z,39.12
2023-01-21T06:42:05.359Z,38.99
2023-01-21T06:44:37.290Z,39.00
2023-01-21T06:47:09.714Z,38.88
2023-01-21T06:49:41.744Z,38.81
2023-01-21T06:52:13.693Z,38.68
2023-01-21T06:54:45.696Z,38.59
2023-01-21T06:57:17.703Z,38.53
2023-01-21T06:59:49.632Z,38.52
2023-01-21T07:02:21.565Z,38.44
2023-01-21T07:04:53.576Z,38.32
2023-01-21T07:07:25.638Z,38.37
2023-01-21T07:09:57.579Z,38.35
2023-01-21T07:12:29.545Z,38.35
2023-01-21T07:15:01.551Z,38.26
2023-01-21T07:17:33.467Z,38.27
2023-01-21T07:20:06.652Z,38.20
2023-01-21T07:22:39.352Z,38.15
2023-01-21T07:25:11.315Z,38.06
2023-01-21T07:27:43.274Z,38.00
2023-01-21T07:30:20.051Z,37.98
2023-01-21T07:32:51.980Z,37.87
2023-01-21T07:35:23.882Z,37.90
2023-01-21T07:37:55.855Z,37.79
2023-01-21T07:40:28.064Z,37.76
2023-01-21T07:43:00.075Z,37.75
2023-01-21T07:45:32.060Z,37.65
2023-01-21T07:48:04.320Z,37.55
2023-01-21T07:50:36.532Z,37.57
2023-01-21T07:53:10.875Z,37.52
2023-01-21T07:55:42.791Z,37.56
2023-01-21T07:58:14.655Z,37.48
2023-01-21T08:00:46.976Z,37.58
2023-01-21T08:03:22.057Z,37.37
2023-01-21T08:05:54.041Z,37.42
2023-01-21T08:08:26.882Z,37.43
2023-01-21T08:10:58.710Z,37.53
2023-01-21T08:13:30.584Z,37.53
2023-01-21T08:16:02.491Z,37.57
2023-01-21T08:18:34.433Z,37.52
2023-01-21T08:21:06.494Z,37.81
2023-01-21T08:23:38.409Z,37.78
2023-01-21T08:26:10.312Z,37.78
2023-01-21T08:28:42.566Z,37.83
2023-01-21T08:31:15.067Z,37.80
2023-01-21T08:33:47.093Z,37.78
2023-01-21T08:36:18.981Z,37.59
2023-01-21T08:39:02.308Z,37.68
2023-01-21T08:41:34.313Z,37.87
2023-01-21T08:44:07.297Z,37.96
2023-01-21T08:46:39.151Z,38.18
2023-01-21T08:49:11.115Z,38.40
2023-01-21T08:51:42.998Z,38.62
2023-01-21T08:54:15.024Z,38.90
2023-01-21T08:56:46.872Z,39.18
2023-01-21T08:59:22.100Z,39.78
2023-01-21T09:01:54.409Z,39.69
2023-01-21T09:04:26.708Z,39.83
2023-01-21T09:06:59.271Z,39.79
2023-01-21T09:09:31.401Z,39.68
2023-01-21T09:12:07.283Z,39.65
2023-01-21T09:14:39.275Z,39.57
2023-01-21T09:17:11.273Z,39.55
2023-01-21T09:19:43.154Z,39.51
2023-01-21T09:22:15.869Z,39.52
2023-01-21T09:24:47.769Z,39.46
2023-01-21T09:27:21.163Z,39.38
2023-01-21T09:29:53.011Z,39.30
2023-01-21T09:32:25.068Z,39.20
2023-01-21T09:34:56.921Z,39.15
2023-01-21T09:37:29.028Z,39.01
2023-01-21T09:40:02.009Z,38.92
2023-01-21T09:42:34.471Z,38.79
2023-01-21T09:45:06.782Z,38.70
2023-01-21T09:47:41.773Z,38.65
2023-01-21T09:50:19.585Z,38.66
2023-01-21T09:52:54.515Z,38.66
2023-01-21T09:55:49.998Z,38.64
2023-01-21T09:58:33.372Z,38.43
2023-01-21T10:01:33.719Z,38.16
2023-01-21T10:04:33.068Z,38.13
2023-01-21T10:07:15.788Z,38.37
2023-01-21T10:10:03.327Z,38.40
2023-01-21T10:12:35.297Z,38.36
2023-01-21T10:15:26.460Z,38.52
2023-01-21T10:18:18.852Z,38.60
2023-01-21T10:21:05.136Z,38.58
2023-01-21T10:23:43.248Z,38.28
2023-01-21T10:26:15.890Z,38.18
2023-01-21T10:28:50.563Z,38.14
2023-01-21T10:31:28.623Z,38.21
2023-01-21T10:34:00.606Z,38.20
2023-01-21T10:36:54.555Z,38.29
2023-01-21T10:39:48.726Z,38.48
2023-01-21T10:42:39.116Z,38.53
2023-01-21T10:45:29.206Z,38.76
2023-01-21T10:48:10.691Z,38.26
2023-01-21T10:50:52.545Z,38.31
2023-01-21T10:53:42.364Z,38.85
2023-01-21T10:56:14.250Z,39.06
2023-01-21T10:58:51.276Z,39.14
2023-01-21T11:01:29.488Z,39.22
2023-01-21T11:04:07.323Z,39.08
2023-01-21T11:06:40.106Z,39.01
2023-01-21T11:09:14.817Z,39.00
2023-01-21T11:11:46.762Z,38.90
2023-01-21T11:14:21.224Z,38.97
2023-01-21T11:16:53.953Z,38.97
2023-01-21T11:19:33.351Z,38.96
2023-01-21T11:22:06.585Z,39.08
2023-01-21T11:24:43.684Z,39.17
2023-01-21T11:27:23.054Z,39.13
2023-01-21T11:29:54.949Z,39.05
2023-01-21T11:32:28.639Z,39.09
2023-01-21T11:35:22.293Z,38.96
2023-01-21T11:37:54.219Z,38.94
2023-01-21T11:40:26.869Z,39.01
2023-01-21T11:42:58.819Z,39.01
2023-01-21T11:45:31.613Z,39.09
2023-01-21T11:48:14.551Z,39.15
2023-01-21T11:50:46.955Z,39.19
2023-01-21T11:53:19.761Z,39.20
2023-01-21T11:55:52.585Z,39.18
2023-01-21T11:58:30.592Z,39.32
2023-01-21T12:01:20.377Z,39.36
2023-01-21T12:04:00.866Z,39.41
2023-01-21T12:06:35.493Z,39.50
2023-01-21T12:09:17.305Z,39.60
2023-01-21T12:12:04.417Z,39.62
2023-01-21T12:14:46.819Z,39.62
2023-01-21T12:17:34.702Z,39.65
2023-01-21T12:20:54.624Z,39.64
2023-01-21T12:24:05.080Z,39.61
2023-01-21T12:26:47.780Z,39.63
2023-01-21T12:29:20.737Z,39.65
2023-01-21T12:32:06.018Z,39.67
2023-01-21T12:34:50.019Z,39.66
2023-01-21T12:37:33.113Z,39.63
2023-01-21T12:40:31.147Z,39.62
2023-01-21T12:43:08.782Z,39.59
2023-01-21T12:45:47.817Z,39.59
2023-01-21T12:48:29.511Z,39.69
2023-01-21T12:51:06.625Z,39.68
2023-01-21T12:53:54.672Z,39.53
2023-01-21T12:56:40.039Z,39.50
2023-01-21T12:59:31.354Z,39.58
2023-01-21T13:02:15.594Z,39.60
2023-01-21T13:04:56.216Z,39.53
2023-01-21T13:07:50.127Z,39.61
2023-01-21T13:10:34.653Z,39.51
2023-01-21T13:13:17.481Z,39.42
2023-01-21T13:15:52.967Z,39.36
2023-01-21T13:18:40.158Z,39.42
2023-01-21T13:21:30.204Z,39.43
2023-01-21T13:24:32.954Z,39.58
2023-01-21T13:27:16.921Z,39.87
2023-01-21T13:30:14.558Z,40.15
2023-01-21T13:33:07.857Z,40.29
2023-01-21T13:35:56.152Z,40.44
2023-01-21T13:38:50.188Z,40.58
2023-01-21T13:41:48.264Z,40.74
2023-01-21T13:45:08.003Z,40.72
2023-01-21T13:48:03.462Z,40.61
2023-01-21T13:50:35.314Z,40.64
2023-01-21T13:53:14.318Z,40.66
2023-01-21T13:55:52.147Z,40.68
2023-01-21T13:58:37.917Z,40.67
2023-01-21T14:01:14.792Z,40.66
2023-01-21T14:03:51.922Z,40.63
2023-01-21T14:06:50.103Z,40.62
2023-01-21T14:09:25.263Z,40.56
2023-01-21T14:12:50.035Z,40.49
2023-01-21T14:15:40.361Z,39.67
2023-01-21T14:18:25.985Z,39.61
2023-01-21T14:21:07.057Z,39.80
2023-01-21T14:23:54.734Z,39.72
2023-01-21T14:26:48.806Z,39.65
2023-01-21T14:29:34.026Z,39.70
2023-01-21T14:32:05.898Z,39.70
2023-01-21T14:34:49.516Z,39.71
2023-01-21T14:37:33.118Z,39.80
2023-01-21T14:40:18.884Z,39.86
2023-01-21T14:42:51.759Z,39.87
2023-01-21T14:45:44.614Z,39.88
2023-01-21T14:48:38.899Z,39.85
2023-01-21T14:51:13.175Z,39.99
2023-01-21T14:53:50.352Z,40.11
2023-01-21T14:56:33.928Z,40.23
2023-01-21T14:59:08.396Z,40.21
2023-01-21T15:01:47.065Z,40.19
2023-01-21T15:04:26.454Z,40.16
2023-01-21T15:07:13.141Z,40.14
2023-01-21T15:09:52.715Z,40.12
2023-01-21T15:12:26.272Z,39.86
2023-01-21T15:15:00.977Z,39.70
2023-01-21T15:17:55.634Z,39.42
2023-01-21T15:20:42.918Z,38.96
2023-01-21T15:23:30.412Z,39.27
2023-01-21T15:26:09.501Z,39.20
2023-01-21T15:28:48.660Z,39.20
2023-01-21T15:31:20.642Z,39.16
2023-01-21T15:33:53.634Z,39.31
2023-01-21T15:36:26.647Z,39.31
2023-01-21T15:39:17.769Z,39.30
2023-01-21T15:42:11.633Z,39.30
2023-01-21T15:44:57.976Z,39.32
2023-01-21T15:47:51.372Z,39.31
2023-01-21T15:50:29.422Z,39.31
2023-01-21T15:53:22.506Z,39.27
2023-01-21T15:56:45.955Z,39.22
2023-01-21T15:59:36.431Z,39.18
2023-01-21T16:02:28.149Z,38.97
2023-01-21T16:05:15.780Z,38.84
2023-01-21T16:08:09.701Z,39.06
2023-01-21T16:11:06.311Z,39.16
2023-01-21T16:13:50.577Z,39.06
2023-01-21T16:16:59.858Z,38.93
2023-01-21T16:19:35.383Z,38.86
2023-01-21T16:22:10.180Z,38.86
2023-01-21T16:24:48.875Z,38.91
2023-01-21T16:27:31.132Z,38.96
2023-01-21T16:30:12.094Z,39.01
2023-01-21T16:32:44.038Z,38.99
2023-01-21T16:35:16.763Z,38.99
2023-01-21T16:37:55.448Z,38.89
2023-01-21T16:40:30.140Z,38.86
2023-01-21T16:43:13.361Z,38.83
2023-01-21T16:45:50.583Z,38.73
2023-01-21T16:48:25.555Z,38.67
2023-01-21T16:50:58.277Z,38.73
2023-01-21T16:53:30.401Z,38.76
2023-01-21T16:56:02.298Z,38.71
2023-01-21T16:58:34.992Z,38.71
2023-01-21T17:01:15.615Z,38.71
2023-01-21T17:03:47.840Z,38.71
2023-01-21T17:06:29.564Z,38.66
2023-01-21T17:09:07.534Z,38.69
2023-01-21T17:11:45.149Z,38.72
2023-01-21T17:14:28.906Z,38.63
2023-01-21T17:17:02.949Z,38.70
2023-01-21T17:19:39.886Z,38.78
2023-01-21T17:22:17.734Z,38.75
2023-01-21T17:25:21.667Z,38.67
2023-01-21T17:27:55.684Z,38.61
2023-01-21T17:30:33.185Z,38.62
2023-01-21T17:33:05.181Z,38.73
2023-01-21T17:35:37.093Z,38.91
2023-01-21T17:38:27.918Z,39.08
2023-01-21T17:41:03.731Z,39.43
2023-01-21T17:43:37.769Z,39.44
2023-01-21T17:46:13.726Z,39.53
2023-01-21T17:48:46.228Z,39.48
2023-01-21T17:51:25.219Z,39.46
2023-01-21T17:54:00.186Z,39.48
2023-01-21T17:56:48.163Z,39.32
2023-01-21T17:59:34.979Z,39.35
2023-01-21T18:02:11.423Z,39.39
2023-01-21T18:04:43.591Z,39.34
2023-01-21T18:07:23.525Z,39.28
2023-01-21T18:09:59.110Z,39.19
2023-01-21T18:12:31.081Z,39.12
2023-01-21T18:15:03.079Z,39.10
2023-01-21T18:17:37.825Z,39.07
2023-01-21T18:20:16.510Z,39.10
2023-01-21T18:22:50.192Z,39.07
2023-01-21T18:25:23.006Z,39.10
2023-01-21T18:27:55.231Z,39.10
2023-01-21T18:30:28.736Z,39.10
2023-01-21T18:33:00.656Z,39.10
2023-01-21T18:35:32.554Z,39.12
2023-01-21T18:38:06.475Z,39.19
2023-01-21T18:40:38.649Z,39.19
2023-01-21T18:43:10.683Z,39.19
2023-01-21T18:45:42.639Z,39.15
2023-01-21T18:48:16.376Z,39.12
2023-01-21T18:50:48.356Z,39.02
2023-01-21T18:53:20.332Z,38.92
2023-01-21T18:55:54.084Z,38.94
2023-01-21T18:58:25.955Z,38.97
2023-01-21T19:00:57.967Z,38.97
2023-01-21T19:03:29.838Z,38.88
2023-01-21T19:06:01.850Z,38.88
2023-01-21T19:08:33.774Z,38.88
2023-01-21T19:11:05.662Z,38.84
2023-01-21T19:13:37.566Z,38.75
2023-01-21T19:16:27.732Z,38.73
2023-01-21T19:18:59.705Z,38.64
2023-01-21T19:21:31.675Z,38.71
2023-01-21T19:24:03.854Z,38.59
2023-01-21T19:26:36.215Z,38.63
2023-01-21T19:29:13.892Z,38.65
2023-01-21T19:31:45.848Z,38.56
2023-01-21T19:34:17.884Z,38.65
2023-01-21T19:36:49.780Z,38.70
2023-01-21T19:39:23.964Z,38.63
2023-01-21T19:42:07.633Z,38.66
2023-01-21T19:44:40.863Z,38.57
2023-01-21T19:47:28.135Z,38.54
2023-01-21T19:50:00.099Z,38.54
2023-01-21T19:52:33.861Z,38.40
2023-01-21T19:55:07.028Z,38.41
2023-01-21T19:57:40.349Z,38.37
2023-01-21T20:00:15.753Z,38.33
2023-01-21T20:02:47.975Z,38.29
2023-01-21T20:05:19.973Z,38.21
2023-01-21T20:07:51.930Z,38.17
2023-01-21T20:10:26.257Z,38.15
2023-01-21T20:12:58.379Z,38.15
2023-01-21T20:15:32.393Z,38.13
2023-01-21T20:18:05.322Z,38.13
2023-01-21T20:20:37.113Z,38.18
2023-01-21T20:23:13.369Z,38.16
2023-01-21T20:25:47.949Z,38.25
2023-01-21T20:28:26.538Z,38.34
2023-01-21T20:30:59.339Z,38.44
2023-01-21T20:33:31.371Z,38.32
2023-01-21T20:36:05.930Z,38.33
2023-01-21T20:38:38.257Z,38.43
2023-01-21T20:41:11.699Z,38.51
2023-01-21T20:43:43.701Z,38.53
2023-01-21T20:46:27.647Z,38.51
2023-01-21T20:49:00.056Z,38.51
2023-01-21T20:51:31.957Z,38.57
2023-01-21T20:54:04.239Z,38.58
2023-01-21T20:56:36.108Z,38.60
2023-01-21T20:59:09.821Z,38.62
2023-01-21T21:01:41.681Z,38.67
2023-01-21T21:04:13.961Z,38.68
2023-01-21T21:06:45.883Z,38.68
2023-01-21T21:09:18.079Z,38.69
2023-01-21T21:11:50.666Z,38.71
2023-01-21T21:14:22.630Z,38.82
2023-01-21T21:16:56.598Z,38.90
2023-01-21T21:19:28.463Z,38.93
2023-01-21T21:22:00.412Z,39.01
2023-01-21T21:24:32.368Z,39.06
2023-01-21T21:27:04.443Z,39.10
2023-01-21T21:29:36.363Z,39.12
2023-01-21T21:32:12.379Z,39.13
2023-01-21T21:34:44.492Z,39.21
2023-01-21T21:37:16.450Z,39.22
2023-01-21T21:39:48.377Z,39.23
2023-01-21T21:42:39.005Z,39.27
2023-01-21T21:45:11.109Z,39.30
2023-01-21T21:48:01.710Z,39.33
2023-01-21T21:50:33.602Z,39.34
2023-01-21T21:53:05.584Z,39.39
2023-01-21T21:55:37.730Z,39.42
2023-01-21T21:58:09.676Z,39.49
2023-01-21T22:00:41.551Z,39.50
2023-01-21T22:03:13.446Z,39.53
2023-01-21T22:05:58.011Z,39.59
2023-01-21T22:08:32.770Z,39.60
2023-01-21T22:11:07.188Z,39.61
2023-01-21T22:13:40.420Z,39.69
2023-01-21T22:16:17.263Z,39.70
2023-01-21T22:18:49.844Z,39.75
2023-01-21T22:21:32.049Z,39.82
2023-01-21T22:24:07.128Z,39.77
2023-01-21T22:26:39.891Z,39.89
2023-01-21T22:29:12.744Z,39.91
2023-01-21T22:31:44.677Z,39.94
2023-01-21T22:34:16.743Z,39.94
2023-01-21T22:36:48.663Z,40.11
2023-01-21T22:39:20.614Z,40.26
2023-01-21T22:41:55.394Z,40.27
2023-01-21T22:44:27.315Z,40.30
2023-01-21T22:46:59.197Z,40.34
2023-01-21T22:49:31.110Z,40.29
2023-01-21T22:52:03.073Z,40.30
2023-01-21T22:54:35.413Z,40.30
2023-01-21T22:57:07.354Z,40.28
2023-01-21T22:59:40.109Z,40.30
2023-01-21T23:02:12.066Z,40.26
2023-01-21T23:04:44.662Z,40.25
2023-01-21T23:07:16.515Z,40.28
2023-01-21T23:09:48.657Z,40.26
2023-01-21T23:12:20.571Z,40.27
2023-01-21T23:14:52.476Z,40.29
2023-01-21T23:17:24.311Z,40.30
2023-01-21T23:19:56.218Z,40.32
2023-01-21T23:22:28.142Z,40.40
2023-01-21T23:25:00.363Z,40.40
2023-01-21T23:27:32.322Z,40.40
2023-01-21T23:30:05.680Z,40.46
2023-01-21T23:32:37.538Z,40.50
2023-01-21T23:35:09.751Z,40.50
2023-01-21T23:37:41.650Z,40.53
2023-01-21T23:40:13.963Z,40.56
2023-01-21T23:42:49.708Z,40.56
2023-01-21T23:45:21.712Z,40.57
2023-01-21T23:47:55.091Z,40.60
2023-01-21T23:50:27.114Z,40.59
2023-01-21T23:52:59.065Z,40.60
2023-01-21T23:55:31.030Z,40.60
2023-01-21T23:58:02.940Z,40.61
